createdAt,value
2018-09-30T00:00:20.038Z,27.99
2018-09-30T00:00:58.149Z,28.00
2018-09-30T00:01:36.149Z,28.02
2018-09-30T00:02:14.096Z,28.01
2018-09-30T00:02:53.618Z,28.02
2018-09-30T00:03:33.940Z,28.04
2018-09-30T00:04:13.305Z,28.04
2018-09-30T00:04:51.434Z,28.05
2018-09-30T00:05:30.122Z,28.06
2018-09-30T00:06:08.328Z,28.07
2018-09-30T00:06:47.221Z,28.08
2018-09-30T00:07:26.618Z,28.08
2018-09-30T00:08:04.827Z,28.07
2018-09-30T00:08:45.042Z,28.09
2018-09-30T00:09:26.762Z,28.11
2018-09-30T00:10:06.741Z,28.09
2018-09-30T00:10:46.776Z,28.11
2018-09-30T00:11:25.615Z,28.13
2018-09-30T00:12:06.026Z,28.13
2018-09-30T00:12:53.530Z,28.13
2018-09-30T00:13:36.598Z,28.15
2018-09-30T00:14:22.644Z,28.16
2018-09-30T00:15:09.656Z,28.16
2018-09-30T00:15:47.642Z,28.17
2018-09-30T00:16:25.545Z,28.17
2018-09-30T00:17:04.549Z,28.18
2018-09-30T00:17:52.568Z,28.19
2018-09-30T00:18:37.226Z,28.19
2018-09-30T00:19:15.507Z,28.21
2018-09-30T00:19:53.949Z,28.22
2018-09-30T00:20:32.075Z,28.25
2018-09-30T00:21:10.370Z,28.25
2018-09-30T00:21:48.580Z,28.28
2018-09-30T00:22:27.279Z,28.28
2018-09-30T00:23:05.450Z,28.30
2018-09-30T00:23:47.515Z,28.33
2018-09-30T00:24:29.488Z,28.33
2018-09-30T00:25:13.410Z,28.33
2018-09-30T00:25:58.538Z,28.36
2018-09-30T00:26:40.641Z,28.36
2018-09-30T00:27:20.594Z,28.38
2018-09-30T00:27:59.063Z,28.38
2018-09-30T00:28:37.749Z,28.39
2018-09-30T00:29:15.783Z,28.40
2018-09-30T00:29:53.822Z,28.40
2018-09-30T00:30:32.057Z,28.40
2018-09-30T00:31:10.235Z,28.40
2018-09-30T00:31:48.474Z,28.40
2018-09-30T00:32:27.435Z,28.42
2018-09-30T00:33:05.644Z,28.44
2018-09-30T00:33:48.674Z,28.45
2018-09-30T00:34:32.351Z,28.47
2018-09-30T00:35:12.721Z,28.47
2018-09-30T00:36:03.195Z,28.50
2018-09-30T00:36:45.584Z,28.51
2018-09-30T00:37:24.631Z,28.53
2018-09-30T00:38:02.582Z,28.53
2018-09-30T00:38:40.584Z,28.53
2018-09-30T00:39:18.792Z,28.57
2018-09-30T00:39:57.163Z,28.57
2018-09-30T00:40:35.336Z,28.59
2018-09-30T00:41:13.397Z,28.61
2018-09-30T00:41:51.506Z,28.62
2018-09-30T00:42:29.407Z,28.63
2018-09-30T00:43:07.544Z,28.65
2018-09-30T00:43:45.526Z,28.67
2018-09-30T00:44:23.608Z,28.70
2018-09-30T00:45:01.415Z,28.72
2018-09-30T00:45:39.469Z,28.74
2018-09-30T00:46:17.618Z,28.76
2018-09-30T00:46:56.213Z,28.74
2018-09-30T00:47:34.761Z,28.81
2018-09-30T00:48:13.070Z,28.84
2018-09-30T00:48:59.848Z,28.84
2018-09-30T00:49:50.480Z,28.87
2018-09-30T00:50:28.690Z,28.91
2018-09-30T00:51:12.674Z,28.93
2018-09-30T00:51:51.010Z,28.95
2018-09-30T00:52:29.808Z,28.98
2018-09-30T00:53:07.844Z,28.99
2018-09-30T00:53:49.853Z,29.00
2018-09-30T00:54:36.365Z,29.01
2018-09-30T00:55:15.103Z,29.02
2018-09-30T00:55:53.120Z,29.04
2018-09-30T00:56:31.095Z,29.05
2018-09-30T00:57:09.063Z,29.06
2018-09-30T00:57:47.328Z,29.09
2018-09-30T00:58:25.402Z,29.09
2018-09-30T00:59:03.322Z,29.10
2018-09-30T00:59:42.077Z,29.11
2018-09-30T01:00:21.784Z,29.14
2018-09-30T01:00:59.877Z,29.15
2018-09-30T01:01:38.085Z,29.17
2018-09-30T01:02:17.019Z,29.20
2018-09-30T01:02:55.095Z,29.21
2018-09-30T01:03:33.195Z,29.19
2018-09-30T01:04:11.400Z,29.24
2018-09-30T01:04:49.265Z,29.25
2018-09-30T01:05:27.397Z,29.27
2018-09-30T01:06:05.304Z,29.27
2018-09-30T01:06:43.226Z,29.29
2018-09-30T01:07:21.140Z,29.26
2018-09-30T01:07:59.042Z,29.33
2018-09-30T01:08:36.908Z,29.35
2018-09-30T01:09:17.399Z,29.36
2018-09-30T01:09:55.533Z,29.39
2018-09-30T01:10:33.403Z,29.41
2018-09-30T01:11:11.854Z,29.42
2018-09-30T01:11:49.880Z,29.45
2018-09-30T01:12:27.725Z,29.48
2018-09-30T01:13:05.593Z,29.48
2018-09-30T01:13:43.373Z,29.51
2018-09-30T01:14:21.231Z,29.54
2018-09-30T01:14:59.178Z,29.50
2018-09-30T01:15:38.227Z,29.55
2018-09-30T01:16:16.768Z,29.58
2018-09-30T01:16:55.683Z,29.60
2018-09-30T01:17:33.520Z,29.62
2018-09-30T01:18:12.326Z,29.65
2018-09-30T01:18:50.212Z,29.68
2018-09-30T01:19:28.300Z,29.68
2018-09-30T01:20:06.847Z,29.70
2018-09-30T01:20:44.774Z,29.73
2018-09-30T01:21:22.673Z,29.75
2018-09-30T01:22:00.815Z,29.76
2018-09-30T01:22:39.257Z,29.77
2018-09-30T01:23:17.531Z,29.79
2018-09-30T01:23:55.729Z,29.82
2018-09-30T01:24:34.021Z,29.86
2018-09-30T01:25:12.257Z,29.93
2018-09-30T01:25:51.508Z,29.99
2018-09-30T01:26:29.825Z,30.04
2018-09-30T01:27:07.947Z,30.08
2018-09-30T01:27:46.000Z,30.18
2018-09-30T01:28:24.013Z,30.28
2018-09-30T01:29:02.007Z,30.36
2018-09-30T01:29:39.800Z,30.42
2018-09-30T01:30:18.311Z,30.45
2018-09-30T01:30:56.296Z,30.48
2018-09-30T01:31:34.171Z,30.49
2018-09-30T01:32:12.087Z,30.51
2018-09-30T01:32:50.945Z,30.52
2018-09-30T01:33:28.881Z,30.53
2018-09-30T01:34:06.793Z,30.56
2018-09-30T01:34:44.692Z,30.59
2018-09-30T01:35:22.715Z,30.62
2018-09-30T01:36:00.845Z,30.64
2018-09-30T01:36:39.018Z,30.65
2018-09-30T01:37:16.977Z,30.65
2018-09-30T01:37:54.887Z,30.68
2018-09-30T01:38:32.764Z,30.70
2018-09-30T01:39:11.668Z,30.73
2018-09-30T01:39:50.968Z,30.76
2018-09-30T01:40:28.929Z,30.78
2018-09-30T01:41:08.008Z,30.85
2018-09-30T01:41:48.138Z,30.89
2018-09-30T01:42:26.060Z,30.86
2018-09-30T01:43:03.901Z,30.91
2018-09-30T01:43:41.962Z,30.92
2018-09-30T01:44:19.786Z,30.94
2018-09-30T01:44:57.600Z,30.97
2018-09-30T01:45:35.471Z,30.99
2018-09-30T01:46:13.345Z,30.99
2018-09-30T01:46:51.182Z,31.00
2018-09-30T01:47:29.043Z,30.99
2018-09-30T01:48:07.072Z,30.99
2018-09-30T01:48:45.033Z,30.98
2018-09-30T01:49:23.765Z,30.96
2018-09-30T01:50:01.748Z,30.98
2018-09-30T01:50:39.665Z,30.97
2018-09-30T01:51:18.424Z,30.97
2018-09-30T01:52:05.070Z,30.97
2018-09-30T01:52:55.750Z,30.95
2018-09-30T01:53:33.709Z,30.92
2018-09-30T01:54:11.581Z,30.93
2018-09-30T01:54:49.682Z,30.92
2018-09-30T01:55:27.462Z,30.91
2018-09-30T01:56:05.362Z,30.92
2018-09-30T01:56:43.443Z,30.93
2018-09-30T01:57:22.630Z,30.94
2018-09-30T01:58:00.479Z,30.95
2018-09-30T01:58:38.394Z,30.95
2018-09-30T01:59:16.400Z,30.98
2018-09-30T01:59:54.206Z,30.98
2018-09-30T02:00:32.079Z,31.00
2018-09-30T02:01:09.973Z,31.03
2018-09-30T02:01:47.801Z,31.05
2018-09-30T02:02:25.750Z,31.08
2018-09-30T02:03:03.709Z,31.07
2018-09-30T02:03:41.445Z,31.08
2018-09-30T02:04:19.315Z,31.10
2018-09-30T02:04:58.325Z,31.09
2018-09-30T02:05:36.161Z,31.07
2018-09-30T02:06:13.986Z,31.04
2018-09-30T02:06:52.203Z,31.02
2018-09-30T02:07:30.122Z,31.01
2018-09-30T02:08:09.163Z,30.98
2018-09-30T02:08:48.001Z,30.98
2018-09-30T02:09:27.862Z,30.96
2018-09-30T02:10:05.732Z,30.95
2018-09-30T02:10:44.989Z,30.96
2018-09-30T02:11:23.010Z,30.95
2018-09-30T02:12:01.606Z,30.93
2018-09-30T02:12:39.602Z,31.00
2018-09-30T02:13:17.510Z,31.02
2018-09-30T02:13:55.445Z,31.05
2018-09-30T02:14:34.043Z,31.07
2018-09-30T02:15:12.093Z,31.10
2018-09-30T02:15:49.932Z,31.17
2018-09-30T02:16:29.912Z,31.24
2018-09-30T02:17:09.008Z,31.28
2018-09-30T02:17:47.058Z,31.31
2018-09-30T02:18:25.035Z,31.34
2018-09-30T02:19:02.955Z,31.41
2018-09-30T02:19:40.844Z,31.46
2018-09-30T02:20:18.641Z,31.56
2018-09-30T02:20:56.495Z,31.64
2018-09-30T02:21:34.461Z,31.70
2018-09-30T02:22:12.497Z,31.76
2018-09-30T02:22:50.308Z,31.78
2018-09-30T02:23:28.297Z,31.84
2018-09-30T02:24:06.923Z,31.90
2018-09-30T02:24:44.777Z,31.96
2018-09-30T02:25:22.625Z,32.05
2018-09-30T02:26:01.694Z,32.10
2018-09-30T02:26:39.469Z,32.16
2018-09-30T02:27:17.402Z,32.24
2018-09-30T02:27:55.224Z,32.30
2018-09-30T02:28:33.193Z,32.37
2018-09-30T02:29:11.236Z,32.47
2018-09-30T02:29:49.057Z,32.55
2018-09-30T02:30:27.021Z,32.63
2018-09-30T02:31:05.834Z,32.66
2018-09-30T02:31:43.702Z,32.70
2018-09-30T02:32:21.707Z,32.71
2018-09-30T02:32:59.681Z,32.72
2018-09-30T02:33:37.558Z,32.80
2018-09-30T02:34:15.421Z,32.83
2018-09-30T02:34:53.456Z,32.87
2018-09-30T02:35:31.533Z,32.84
2018-09-30T02:36:09.412Z,32.76
2018-09-30T02:36:47.331Z,32.73
2018-09-30T02:37:25.349Z,32.73
2018-09-30T02:38:18.368Z,32.73
2018-09-30T02:38:57.553Z,32.77
2018-09-30T02:39:36.556Z,32.78
2018-09-30T02:40:14.555Z,32.82
2018-09-30T02:40:52.437Z,32.85
2018-09-30T02:41:30.266Z,32.86
2018-09-30T02:42:08.126Z,32.88
2018-09-30T02:42:50.217Z,32.87
2018-09-30T02:43:28.011Z,32.85
2018-09-30T02:44:05.861Z,32.87
2018-09-30T02:44:44.242Z,32.92
2018-09-30T02:45:22.254Z,32.95
2018-09-30T02:46:00.339Z,33.03
2018-09-30T02:46:39.177Z,33.11
2018-09-30T02:47:17.674Z,33.17
2018-09-30T02:47:55.454Z,33.13
2018-09-30T02:48:33.280Z,33.10
2018-09-30T02:49:11.159Z,33.13
2018-09-30T02:49:52.283Z,33.10
2018-09-30T02:50:30.382Z,33.12
2018-09-30T02:51:08.362Z,33.15
2018-09-30T02:51:46.354Z,33.16
2018-09-30T02:52:24.164Z,33.14
2018-09-30T02:53:02.020Z,33.19
2018-09-30T02:53:40.208Z,33.26
2018-09-30T02:54:18.095Z,33.34
2018-09-30T02:54:55.937Z,33.35
2018-09-30T02:55:33.834Z,33.33
2018-09-30T02:56:11.868Z,33.34
2018-09-30T02:56:49.969Z,33.34
2018-09-30T02:57:27.825Z,33.33
2018-09-30T02:58:06.721Z,33.28
2018-09-30T02:58:44.570Z,33.27
2018-09-30T02:59:23.987Z,33.25
2018-09-30T03:00:02.396Z,33.23
2018-09-30T03:00:40.289Z,33.19
2018-09-30T03:01:19.439Z,33.18
2018-09-30T03:01:57.291Z,33.17
2018-09-30T03:02:35.516Z,33.17
2018-09-30T03:03:15.400Z,33.16
2018-09-30T03:03:53.505Z,33.14
2018-09-30T03:04:31.631Z,33.11
2018-09-30T03:05:09.670Z,33.10
2018-09-30T03:05:47.605Z,33.09
2018-09-30T03:06:29.502Z,33.08
2018-09-30T03:07:11.474Z,33.07
2018-09-30T03:07:53.554Z,33.08
2018-09-30T03:08:35.916Z,33.07
2018-09-30T03:09:18.828Z,33.08
2018-09-30T03:09:56.596Z,33.08
2018-09-30T03:10:34.758Z,33.07
2018-09-30T03:11:12.846Z,33.05
2018-09-30T03:11:50.825Z,33.05
2018-09-30T03:12:28.682Z,33.06
2018-09-30T03:13:06.973Z,33.04
2018-09-30T03:13:44.854Z,33.00
2018-09-30T03:14:22.795Z,33.03
2018-09-30T03:15:00.713Z,33.02
2018-09-30T03:15:38.586Z,33.03
2018-09-30T03:16:17.708Z,33.01
2018-09-30T03:16:55.561Z,32.96
2018-09-30T03:17:33.545Z,32.94
2018-09-30T03:18:11.482Z,32.89
2018-09-30T03:18:49.389Z,32.88
2018-09-30T03:19:27.256Z,32.90
2018-09-30T03:20:05.283Z,32.91
2018-09-30T03:20:44.471Z,32.92
2018-09-30T03:21:22.577Z,32.93
2018-09-30T03:22:00.478Z,32.95
2018-09-30T03:22:39.303Z,32.94
2018-09-30T03:23:17.206Z,32.92
2018-09-30T03:23:55.636Z,32.94
2018-09-30T03:24:33.732Z,32.95
2018-09-30T03:25:11.877Z,32.96
2018-09-30T03:25:49.974Z,32.96
2018-09-30T03:26:27.934Z,32.97
2018-09-30T03:27:06.078Z,32.97
2018-09-30T03:27:44.774Z,32.99
2018-09-30T03:28:22.766Z,33.00
2018-09-30T03:29:00.781Z,32.99
2018-09-30T03:29:38.872Z,33.00
2018-09-30T03:30:18.116Z,33.02
2018-09-30T03:30:57.010Z,32.99
2018-09-30T03:31:34.906Z,32.98
2018-09-30T03:32:12.734Z,32.99
2018-09-30T03:32:50.613Z,32.98
2018-09-30T03:33:28.597Z,32.99
2018-09-30T03:34:06.537Z,32.98
2018-09-30T03:34:44.408Z,32.97
2018-09-30T03:35:22.297Z,32.98
2018-09-30T03:36:00.115Z,32.96
2018-09-30T03:36:37.970Z,32.96
2018-09-30T03:37:16.817Z,32.94
2018-09-30T03:38:08.603Z,32.97
2018-09-30T03:38:46.440Z,32.96
2018-09-30T03:39:25.585Z,32.99
2018-09-30T03:40:03.557Z,32.99
2018-09-30T03:40:41.459Z,32.98
2018-09-30T03:41:19.351Z,32.98
2018-09-30T03:41:57.208Z,32.99
2018-09-30T03:42:35.199Z,33.00
2018-09-30T03:43:14.275Z,32.98
2018-09-30T03:43:52.354Z,32.98
2018-09-30T03:44:30.286Z,33.00
2018-09-30T03:45:08.417Z,32.99
2018-09-30T03:45:47.199Z,33.00
2018-09-30T03:46:25.223Z,32.99
2018-09-30T03:47:03.092Z,33.01
2018-09-30T03:47:41.010Z,33.02
2018-09-30T03:48:18.980Z,33.00
2018-09-30T03:48:56.995Z,33.00
2018-09-30T03:49:34.969Z,33.02
2018-09-30T03:50:14.263Z,33.01
2018-09-30T03:50:52.205Z,33.04
2018-09-30T03:51:30.006Z,33.04
2018-09-30T03:52:08.277Z,33.07
2018-09-30T03:52:47.467Z,33.09
2018-09-30T03:53:25.595Z,33.09
2018-09-30T03:54:03.570Z,33.14
2018-09-30T03:54:41.646Z,33.17
2018-09-30T03:55:19.599Z,33.20
2018-09-30T03:55:57.720Z,33.26
2018-09-30T03:56:35.704Z,33.27
2018-09-30T03:57:13.662Z,33.33
2018-09-30T03:57:51.686Z,33.36
2018-09-30T03:58:29.514Z,33.39
2018-09-30T03:59:07.390Z,33.41
2018-09-30T03:59:45.179Z,33.46
2018-09-30T04:00:22.996Z,33.49
2018-09-30T04:01:00.961Z,33.51
2018-09-30T04:01:39.058Z,33.54
2018-09-30T04:02:17.084Z,33.57
2018-09-30T04:02:54.977Z,33.59
2018-09-30T04:03:32.984Z,33.62
2018-09-30T04:04:10.909Z,33.64
2018-09-30T04:04:50.376Z,33.69
2018-09-30T04:05:28.243Z,33.72
2018-09-30T04:06:06.128Z,33.76
2018-09-30T04:06:44.952Z,33.79
2018-09-30T04:07:22.955Z,33.83
2018-09-30T04:08:01.142Z,33.88
2018-09-30T04:08:39.083Z,33.91
2018-09-30T04:09:17.200Z,33.93
2018-09-30T04:09:55.105Z,33.91
2018-09-30T04:10:33.208Z,33.92
2018-09-30T04:11:11.137Z,33.95
2018-09-30T04:11:49.050Z,33.97
2018-09-30T04:12:27.287Z,33.99
2018-09-30T04:13:05.169Z,33.96
2018-09-30T04:13:44.562Z,33.94
2018-09-30T04:14:22.920Z,33.96
2018-09-30T04:15:00.709Z,33.98
2018-09-30T04:15:38.766Z,34.01
2018-09-30T04:16:17.638Z,34.02
2018-09-30T04:16:55.581Z,34.04
2018-09-30T04:17:33.504Z,34.04
2018-09-30T04:18:12.946Z,34.03
2018-09-30T04:18:50.734Z,34.06
2018-09-30T04:19:28.548Z,34.08
2018-09-30T04:20:06.606Z,34.09
2018-09-30T04:20:44.668Z,34.10
2018-09-30T04:21:22.940Z,34.13
2018-09-30T04:22:00.889Z,34.13
2018-09-30T04:22:38.779Z,34.15
2018-09-30T04:23:16.629Z,34.16
2018-09-30T04:24:01.641Z,34.18
2018-09-30T04:24:39.453Z,34.17
2018-09-30T04:25:18.659Z,34.20
2018-09-30T04:25:56.777Z,34.19
2018-09-30T04:26:34.666Z,34.18
2018-09-30T04:27:14.141Z,34.20
2018-09-30T04:27:52.185Z,34.20
2018-09-30T04:28:30.063Z,34.21
2018-09-30T04:29:08.193Z,34.21
2018-09-30T04:29:46.028Z,34.22
2018-09-30T04:30:23.903Z,34.22
2018-09-30T04:31:01.886Z,34.22
2018-09-30T04:31:39.744Z,34.22
2018-09-30T04:32:17.628Z,34.22
2018-09-30T04:32:55.528Z,34.23
2018-09-30T04:33:33.410Z,34.23
2018-09-30T04:34:11.363Z,34.24
2018-09-30T04:34:49.136Z,34.25
2018-09-30T04:35:27.627Z,34.26
2018-09-30T04:36:05.477Z,34.28
2018-09-30T04:36:43.290Z,34.29
2018-09-30T04:37:21.195Z,34.28
2018-09-30T04:37:59.085Z,34.31
2018-09-30T04:38:36.961Z,34.33
2018-09-30T04:39:15.749Z,34.35
2018-09-30T04:39:53.615Z,34.37
2018-09-30T04:40:31.729Z,34.39
2018-09-30T04:41:09.940Z,34.41
2018-09-30T04:41:47.789Z,34.41
2018-09-30T04:42:26.851Z,34.43
2018-09-30T04:43:05.775Z,34.44
2018-09-30T04:43:43.728Z,34.46
2018-09-30T04:44:23.055Z,34.49
2018-09-30T04:45:01.042Z,34.53
2018-09-30T04:45:39.852Z,34.56
2018-09-30T04:46:17.649Z,34.59
2018-09-30T04:46:55.762Z,34.62
2018-09-30T04:47:34.778Z,34.67
2018-09-30T04:48:12.769Z,34.70
2018-09-30T04:48:50.706Z,34.75
2018-09-30T04:49:28.809Z,34.78
2018-09-30T04:50:06.696Z,34.82
2018-09-30T04:50:44.818Z,34.85
2018-09-30T04:51:22.645Z,34.87
2018-09-30T04:52:00.509Z,34.88
2018-09-30T04:52:38.393Z,34.90
2018-09-30T04:53:16.464Z,34.92
2018-09-30T04:53:54.435Z,34.95
2018-09-30T04:54:32.452Z,34.97
2018-09-30T04:55:10.327Z,34.99
2018-09-30T04:55:48.178Z,35.03
2018-09-30T04:56:25.997Z,35.06
2018-09-30T04:57:04.013Z,35.08
2018-09-30T04:57:41.905Z,35.10
2018-09-30T04:58:19.800Z,35.11
2018-09-30T04:58:59.049Z,35.11
2018-09-30T04:59:37.088Z,35.10
2018-09-30T05:00:14.998Z,35.08
2018-09-30T05:00:52.771Z,34.99
2018-09-30T05:01:30.637Z,34.93
2018-09-30T05:02:08.569Z,34.96
2018-09-30T05:02:46.827Z,34.97
2018-09-30T05:03:24.819Z,34.95
2018-09-30T05:04:02.706Z,34.97
2018-09-30T05:04:41.155Z,35.00
2018-09-30T05:05:19.953Z,34.98
2018-09-30T05:05:58.807Z,35.01
2018-09-30T05:06:36.848Z,35.04
2018-09-30T05:07:14.727Z,35.05
2018-09-30T05:07:52.515Z,35.06
2018-09-30T05:08:30.908Z,35.08
2018-09-30T05:09:10.662Z,35.11
2018-09-30T05:09:49.940Z,35.15
2018-09-30T05:10:28.719Z,35.17
2018-09-30T05:11:07.727Z,35.16
2018-09-30T05:11:45.627Z,35.16
2018-09-30T05:12:23.474Z,35.21
2018-09-30T05:13:01.280Z,35.22
2018-09-30T05:13:39.124Z,35.26
2018-09-30T05:14:17.138Z,35.27
2018-09-30T05:14:55.104Z,35.30
2018-09-30T05:15:33.898Z,35.33
2018-09-30T05:16:11.916Z,35.36
2018-09-30T05:16:49.792Z,35.41
2018-09-30T05:17:27.632Z,35.43
2018-09-30T05:18:05.904Z,35.43
2018-09-30T05:18:44.787Z,35.42
2018-09-30T05:19:22.564Z,35.39
2018-09-30T05:20:00.580Z,35.36
2018-09-30T05:20:38.571Z,35.39
2018-09-30T05:21:16.429Z,35.38
2018-09-30T05:21:54.227Z,35.39
2018-09-30T05:22:32.094Z,35.37
2018-09-30T05:23:10.112Z,35.39
2018-09-30T05:23:47.946Z,35.40
2018-09-30T05:24:25.882Z,35.41
2018-09-30T05:25:03.792Z,35.47
2018-09-30T05:25:41.756Z,35.50
2018-09-30T05:26:19.780Z,35.56
2018-09-30T05:26:57.680Z,35.61
2018-09-30T05:27:35.600Z,35.64
2018-09-30T05:28:13.410Z,35.63
2018-09-30T05:28:51.341Z,35.65
2018-09-30T05:29:29.236Z,35.69
2018-09-30T05:30:07.957Z,35.69
2018-09-30T05:30:45.758Z,35.71
2018-09-30T05:31:24.501Z,35.71
2018-09-30T05:32:02.379Z,35.72
2018-09-30T05:32:40.480Z,35.73
2018-09-30T05:33:18.448Z,35.73
2018-09-30T05:33:56.505Z,35.76
2018-09-30T05:34:34.750Z,35.78
2018-09-30T05:35:12.613Z,35.81
2018-09-30T05:35:50.799Z,35.84
2018-09-30T05:36:28.733Z,35.84
2018-09-30T05:37:06.645Z,35.84
2018-09-30T05:37:44.630Z,35.83
2018-09-30T05:38:22.536Z,35.81
2018-09-30T05:39:00.483Z,35.75
2018-09-30T05:39:38.425Z,35.72
2018-09-30T05:40:17.084Z,35.66
2018-09-30T05:40:54.960Z,35.64
2018-09-30T05:41:32.756Z,35.62
2018-09-30T05:42:11.009Z,35.60
2018-09-30T05:42:48.849Z,35.51
2018-09-30T05:43:26.971Z,35.52
2018-09-30T05:44:06.755Z,35.49
2018-09-30T05:44:44.759Z,35.41
2018-09-30T05:45:22.822Z,35.35
2018-09-30T05:46:01.772Z,35.29
2018-09-30T05:46:40.131Z,35.27
2018-09-30T05:47:17.972Z,35.26
2018-09-30T05:47:55.874Z,35.23
2018-09-30T05:48:34.691Z,35.22
2018-09-30T05:49:12.700Z,35.19
2018-09-30T05:49:50.692Z,35.17
2018-09-30T05:50:28.518Z,35.17
2018-09-30T05:51:06.424Z,35.20
2018-09-30T05:51:44.311Z,35.20
2018-09-30T05:52:22.603Z,35.22
2018-09-30T05:53:00.482Z,35.19
2018-09-30T05:53:38.401Z,35.19
2018-09-30T05:54:16.901Z,35.19
2018-09-30T05:54:55.677Z,35.17
2018-09-30T05:55:33.790Z,35.16
2018-09-30T05:56:11.675Z,35.18
2018-09-30T05:56:49.671Z,35.19
2018-09-30T05:57:27.668Z,35.21
2018-09-30T05:58:05.591Z,35.23
2018-09-30T05:58:44.386Z,35.27
2018-09-30T05:59:23.147Z,35.31
2018-09-30T06:00:00.970Z,35.35
2018-09-30T06:00:39.984Z,35.41
2018-09-30T06:01:17.968Z,35.45
2018-09-30T06:01:55.754Z,35.45
2018-09-30T06:02:34.668Z,35.45
2018-09-30T06:03:12.441Z,35.47
2018-09-30T06:03:50.489Z,35.48
2018-09-30T06:04:28.638Z,35.53
2018-09-30T06:05:06.437Z,35.58
2018-09-30T06:05:44.546Z,35.63
2018-09-30T06:06:22.916Z,35.67
2018-09-30T06:07:00.746Z,35.71
2018-09-30T06:07:38.672Z,35.76
2018-09-30T06:08:17.279Z,35.80
2018-09-30T06:08:55.176Z,35.80
2018-09-30T06:09:33.182Z,35.82
2018-09-30T06:10:12.285Z,35.85
2018-09-30T06:10:50.214Z,35.92
2018-09-30T06:11:28.046Z,35.96
2018-09-30T06:12:06.952Z,35.99
2018-09-30T06:12:44.791Z,36.05
2018-09-30T06:13:22.757Z,36.09
2018-09-30T06:14:00.732Z,36.11
2018-09-30T06:14:38.654Z,36.11
2018-09-30T06:15:16.662Z,36.14
2018-09-30T06:15:54.772Z,36.14
2018-09-30T06:16:33.503Z,36.12
2018-09-30T06:17:11.313Z,36.14
2018-09-30T06:17:49.190Z,36.18
2018-09-30T06:18:27.070Z,36.18
2018-09-30T06:19:04.972Z,36.19
2018-09-30T06:19:43.747Z,36.22
2018-09-30T06:20:21.818Z,36.24
2018-09-30T06:21:00.041Z,36.27
2018-09-30T06:21:38.070Z,36.25
2018-09-30T06:22:16.633Z,36.23
2018-09-30T06:22:54.665Z,36.21
2018-09-30T06:23:32.844Z,36.19
2018-09-30T06:24:13.758Z,36.12
2018-09-30T06:24:51.768Z,36.10
2018-09-30T06:25:29.723Z,36.09
2018-09-30T06:26:08.345Z,36.08
2018-09-30T06:26:47.124Z,36.12
2018-09-30T06:27:28.300Z,36.16
2018-09-30T06:28:15.597Z,36.12
2018-09-30T06:28:53.761Z,36.13
2018-09-30T06:29:31.638Z,36.09
2018-09-30T06:30:09.758Z,36.09
2018-09-30T06:30:47.623Z,36.08
2018-09-30T06:31:26.496Z,36.08
2018-09-30T06:32:04.376Z,36.06
2018-09-30T06:32:42.265Z,36.06
2018-09-30T06:33:20.186Z,36.05
2018-09-30T06:33:58.311Z,36.07
2018-09-30T06:34:36.416Z,36.08
2018-09-30T06:35:14.841Z,36.11
2018-09-30T06:35:52.721Z,36.12
2018-09-30T06:36:30.683Z,36.13
2018-09-30T06:37:08.625Z,36.15
2018-09-30T06:37:46.469Z,36.17
2018-09-30T06:38:24.530Z,36.15
2018-09-30T06:39:02.325Z,36.14
2018-09-30T06:39:40.401Z,36.12
2018-09-30T06:40:18.236Z,36.10
2018-09-30T06:40:56.290Z,36.09
2018-09-30T06:41:34.174Z,36.08
2018-09-30T06:42:12.033Z,36.11
2018-09-30T06:42:49.861Z,36.12
2018-09-30T06:43:27.684Z,36.14
2018-09-30T06:44:05.641Z,36.17
2018-09-30T06:44:43.758Z,36.21
2018-09-30T06:45:21.681Z,36.22
2018-09-30T06:45:59.501Z,36.22
2018-09-30T06:46:37.397Z,36.23
2018-09-30T06:47:15.226Z,36.24
2018-09-30T06:47:53.271Z,36.27
2018-09-30T06:48:31.108Z,36.30
2018-09-30T06:49:08.997Z,36.34
2018-09-30T06:49:46.858Z,36.39
2018-09-30T06:50:24.832Z,36.37
2018-09-30T06:51:02.886Z,36.36
2018-09-30T06:51:40.919Z,36.39
2018-09-30T06:52:19.582Z,36.40
2018-09-30T06:52:57.360Z,36.40
2018-09-30T06:53:35.218Z,36.43
2018-09-30T06:54:14.097Z,36.47
2018-09-30T06:54:52.061Z,36.48
2018-09-30T06:55:30.158Z,36.50
2018-09-30T06:56:08.032Z,36.53
2018-09-30T06:56:46.108Z,36.56
2018-09-30T06:57:24.194Z,36.60
2018-09-30T06:58:02.188Z,36.59
2018-09-30T06:58:40.034Z,36.60
2018-09-30T06:59:18.120Z,36.62
2018-09-30T06:59:55.933Z,36.63
2018-09-30T07:00:33.821Z,36.64
2018-09-30T07:01:11.863Z,36.66
2018-09-30T07:01:49.692Z,36.66
2018-09-30T07:02:27.686Z,36.68
2018-09-30T07:03:05.795Z,36.71
2018-09-30T07:03:43.634Z,36.69
2018-09-30T07:04:21.473Z,36.74
2018-09-30T07:04:59.384Z,36.75
2018-09-30T07:05:39.048Z,36.77
2018-09-30T07:06:17.351Z,36.79
2018-09-30T07:06:55.243Z,36.83
2018-09-30T07:07:33.110Z,36.87
2018-09-30T07:08:11.578Z,36.89
2018-09-30T07:08:49.421Z,36.93
2018-09-30T07:09:27.265Z,36.92
2018-09-30T07:10:05.804Z,36.90
2018-09-30T07:10:43.686Z,36.90
2018-09-30T07:11:22.817Z,36.93
2018-09-30T07:12:00.775Z,36.95
2018-09-30T07:12:39.419Z,36.97
2018-09-30T07:13:17.350Z,37.00
2018-09-30T07:13:56.498Z,36.97
2018-09-30T07:14:34.554Z,36.98
2018-09-30T07:15:12.713Z,36.99
2018-09-30T07:15:50.605Z,37.00
2018-09-30T07:16:28.587Z,36.99
2018-09-30T07:17:06.477Z,36.98
2018-09-30T07:17:44.650Z,36.96
2018-09-30T07:18:22.624Z,36.95
2018-09-30T07:19:00.587Z,36.91
2018-09-30T07:19:38.407Z,36.82
2018-09-30T07:20:17.959Z,36.71
2018-09-30T07:20:55.909Z,36.61
2018-09-30T07:21:35.238Z,36.53
2018-09-30T07:22:13.104Z,36.43
2018-09-30T07:22:51.349Z,36.35
2018-09-30T07:23:29.206Z,36.26
2018-09-30T07:24:07.028Z,36.22
2018-09-30T07:24:45.018Z,36.15
2018-09-30T07:25:23.004Z,36.11
2018-09-30T07:26:00.994Z,36.13
2018-09-30T07:26:38.912Z,36.16
2018-09-30T07:27:17.050Z,36.15
2018-09-30T07:27:54.875Z,36.12
2018-09-30T07:28:32.824Z,36.13
2018-09-30T07:29:11.018Z,36.14
2018-09-30T07:29:49.073Z,36.12
2018-09-30T07:30:27.889Z,36.05
2018-09-30T07:31:05.892Z,35.96
2018-09-30T07:31:43.660Z,35.87
2018-09-30T07:32:21.654Z,35.79
2018-09-30T07:33:02.899Z,35.73
2018-09-30T07:33:41.267Z,35.68
2018-09-30T07:34:19.136Z,35.65
2018-09-30T07:34:57.867Z,35.62
2018-09-30T07:35:35.709Z,35.60
2018-09-30T07:36:13.723Z,35.54
2018-09-30T07:36:51.580Z,35.48
2018-09-30T07:37:29.439Z,35.42
2018-09-30T07:38:07.215Z,35.38
2018-09-30T07:38:45.165Z,35.31
2018-09-30T07:39:23.070Z,35.28
2018-09-30T07:40:01.160Z,35.22
2018-09-30T07:40:38.978Z,35.16
2018-09-30T07:41:16.811Z,35.12
2018-09-30T07:41:55.467Z,35.08
2018-09-30T07:42:33.394Z,35.05
2018-09-30T07:43:11.187Z,35.01
2018-09-30T07:43:49.022Z,34.98
2018-09-30T07:44:26.876Z,34.96
2018-09-30T07:45:04.812Z,34.95
2018-09-30T07:45:42.666Z,34.95
2018-09-30T07:46:20.589Z,34.96
2018-09-30T07:46:58.430Z,34.96
2018-09-30T07:47:36.363Z,34.98
2018-09-30T07:48:14.440Z,35.02
2018-09-30T07:48:53.454Z,34.96
2018-09-30T07:49:32.756Z,34.97
2018-09-30T07:50:10.694Z,34.98
2018-09-30T07:50:48.569Z,34.99
2018-09-30T07:51:26.467Z,34.98
2018-09-30T07:52:04.289Z,34.94
2018-09-30T07:52:43.618Z,34.89
2018-09-30T07:53:23.037Z,34.89
2018-09-30T07:54:00.897Z,34.87
2018-09-30T07:54:39.266Z,34.86
2018-09-30T07:55:17.147Z,34.84
2018-09-30T07:55:55.266Z,34.82
2018-09-30T07:56:33.289Z,34.79
2018-09-30T07:57:11.196Z,34.79
2018-09-30T07:57:50.183Z,34.76
2018-09-30T07:58:28.083Z,34.70
2018-09-30T07:59:06.036Z,34.68
2018-09-30T07:59:43.819Z,34.68
2018-09-30T08:00:22.451Z,34.66
2018-09-30T08:01:01.359Z,34.61
2018-09-30T08:01:39.186Z,34.60
2018-09-30T08:02:18.144Z,34.56
2018-09-30T08:02:56.011Z,34.55
2018-09-30T08:03:33.919Z,34.53
2018-09-30T08:04:11.823Z,34.51
2018-09-30T08:04:49.657Z,34.49
2018-09-30T08:05:27.563Z,34.47
2018-09-30T08:06:06.106Z,34.45
2018-09-30T08:06:45.048Z,34.46
2018-09-30T08:07:23.001Z,34.46
2018-09-30T08:08:03.121Z,34.43
2018-09-30T08:08:42.897Z,34.42
2018-09-30T08:09:22.713Z,34.40
2018-09-30T08:10:01.126Z,34.43
2018-09-30T08:10:38.963Z,34.45
2018-09-30T08:11:16.848Z,34.46
2018-09-30T08:11:54.661Z,34.49
2018-09-30T08:12:32.775Z,34.49
2018-09-30T08:13:10.740Z,34.51
2018-09-30T08:13:48.546Z,34.49
2018-09-30T08:14:26.482Z,34.47
2018-09-30T08:15:04.809Z,34.46
2018-09-30T08:15:42.757Z,34.45